createdAt,value
2023-05-04T00:00:00.825Z,92977.97
2023-05-04T00:02:27.516Z,92978.41
2023-05-04T00:04:54.430Z,92981.56
2023-05-04T00:07:21.052Z,92985.03
2023-05-04T00:09:47.499Z,92985.03
2023-05-04T00:12:13.965Z,92978.41
2023-05-04T00:14:40.422Z,92982.91
2023-05-04T00:17:07.824Z,92976.56
2023-05-04T00:19:34.806Z,92983.19
2023-05-04T00:22:01.325Z,92973.59
2023-05-04T00:24:28.265Z,92982.16
2023-05-04T00:26:54.853Z,92985.59
2023-05-04T00:29:21.350Z,92980.94
2023-05-04T00:31:47.872Z,92985.16
2023-05-04T00:34:15.498Z,92979.91
2023-05-04T00:36:42.822Z,92971.50
2023-05-04T00:39:09.337Z,92975.72
2023-05-04T00:41:35.791Z,92974.22
2023-05-04T00:44:04.203Z,92973.75
2023-05-04T00:46:31.464Z,92974.97
2023-05-04T00:48:59.665Z,92978.56
2023-05-04T00:51:26.431Z,92970.00
2023-05-04T00:53:54.303Z,92966.53
2023-05-04T00:56:24.264Z,92971.81
2023-05-04T00:58:54.249Z,92967.88
2023-05-04T01:01:24.264Z,92972.09
2023-05-04T01:03:51.422Z,92974.03
2023-05-04T01:06:33.067Z,92969.09
2023-05-04T01:09:21.298Z,92969.25
2023-05-04T01:11:47.651Z,92972.41
2023-05-04T01:14:14.212Z,92971.50
2023-05-04T01:16:40.741Z,92977.81
2023-05-04T01:19:07.224Z,92978.72
2023-05-04T01:21:33.832Z,92981.88
2023-05-04T01:24:00.325Z,92984.31
2023-05-04T01:26:31.099Z,92973.50
2023-05-04T01:29:16.198Z,92975.13
2023-05-04T01:31:42.885Z,92973.06
2023-05-04T01:34:09.352Z,92976.69
2023-05-04T01:36:36.034Z,92975.63
2023-05-04T01:39:03.124Z,92980.59
2023-05-04T01:41:30.187Z,92976.38
2023-05-04T01:43:57.503Z,92979.09
2023-05-04T01:46:24.001Z,92972.63
2023-05-04T01:48:50.801Z,92975.78
2023-05-04T01:51:17.253Z,92981.81
2023-05-04T01:53:43.747Z,92979.69
2023-05-04T01:56:10.226Z,92979.88
2023-05-04T01:58:36.690Z,92987.69
2023-05-04T02:01:03.235Z,92980.31
2023-05-04T02:03:31.217Z,92972.34
2023-05-04T02:05:57.840Z,92978.19
2023-05-04T02:08:24.328Z,92981.34
2023-05-04T02:10:50.812Z,92981.50
2023-05-04T02:13:17.449Z,92974.00
2023-05-04T02:15:44.190Z,92975.66
2023-05-04T02:18:10.824Z,92973.41
2023-05-04T02:20:37.369Z,92975.81
2023-05-04T02:23:03.876Z,92974.03
2023-05-04T02:25:30.756Z,92971.75
2023-05-04T02:27:57.227Z,92971.94
2023-05-04T02:30:23.842Z,92963.25
2023-05-04T02:32:50.427Z,92963.69
2023-05-04T02:35:16.965Z,92969.97
2023-05-04T02:37:43.440Z,92969.69
2023-05-04T02:40:10.362Z,92969.09
2023-05-04T02:42:36.827Z,92970.44
2023-05-04T02:45:03.745Z,92974.03
2023-05-04T02:47:30.241Z,92961.91
2023-05-04T02:49:56.733Z,92966.56
2023-05-04T02:52:23.217Z,92968.34
2023-05-04T02:54:52.368Z,92977.34
2023-05-04T02:57:19.522Z,92976.28
2023-05-04T02:59:46.704Z,92975.97
2023-05-04T03:02:13.213Z,92981.06
2023-05-04T03:04:39.776Z,92986.63
2023-05-04T03:07:06.620Z,92981.97
2023-05-04T03:09:33.093Z,92981.53
2023-05-04T03:11:59.612Z,92987.81
2023-05-04T03:14:26.362Z,92983.00
2023-05-04T03:16:53.051Z,92980.75
2023-05-04T03:19:21.893Z,92980.00
2023-05-04T03:21:48.507Z,92987.81
2023-05-04T03:24:17.198Z,92994.84
2023-05-04T03:26:43.768Z,92992.91
2023-05-04T03:29:10.752Z,92986.31
2023-05-04T03:31:43.504Z,92992.75
2023-05-04T03:34:12.426Z,92994.13
2023-05-04T03:36:38.989Z,92999.06
2023-05-04T03:39:05.435Z,92993.22
2023-05-04T03:41:31.949Z,92994.25
2023-05-04T03:43:58.445Z,92991.09
2023-05-04T03:46:25.063Z,92988.72
2023-05-04T03:48:51.770Z,92987.09
2023-05-04T03:51:18.281Z,92987.09
2023-05-04T03:53:45.035Z,92984.69
2023-05-04T03:56:11.866Z,92987.84
2023-05-04T03:58:38.455Z,92989.03
2023-05-04T04:01:05.012Z,92981.38
2023-05-04T04:03:31.743Z,92986.34
2023-05-04T04:05:58.467Z,92985.59
2023-05-04T04:08:24.963Z,92983.63
2023-05-04T04:10:51.509Z,92977.91
2023-05-04T04:13:18.080Z,92982.72
2023-05-04T04:15:46.483Z,92982.41
2023-05-04T04:18:13.091Z,92992.00
2023-05-04T04:20:39.579Z,92995.00
2023-05-04T04:23:06.064Z,92991.84
2023-05-04T04:25:32.676Z,92999.06
2023-05-04T04:27:59.142Z,92999.81
2023-05-04T04:30:25.733Z,93009.09
2023-05-04T04:32:52.335Z,93005.97
2023-05-04T04:35:18.857Z,93012.41
2023-05-04T04:37:45.322Z,93007.16
2023-05-04T04:40:13.096Z,93008.53
2023-05-04T04:42:39.574Z,93008.81
2023-05-04T04:45:06.786Z,93004.00
2023-05-04T04:47:33.444Z,93000.28
2023-05-04T04:49:59.951Z,93005.38
2023-05-04T04:52:26.477Z,93004.31
2023-05-04T04:54:52.939Z,93007.03
2023-05-04T04:57:19.409Z,93006.28
2023-05-04T04:59:46.413Z,93009.72
2023-05-04T05:02:12.899Z,93007.75
2023-05-04T05:04:40.095Z,93013.59
2023-05-04T05:07:08.851Z,93013.59
2023-05-04T05:09:35.464Z,93012.97
2023-05-04T05:12:01.976Z,93015.94
2023-05-04T05:14:28.511Z,93013.22
2023-05-04T05:16:55.070Z,93020.56
2023-05-04T05:19:21.553Z,93020.84
2023-05-04T05:21:49.278Z,93021.44
2023-05-04T05:24:17.143Z,93021.09
2023-05-04T05:26:43.603Z,93013.72
2023-05-04T05:29:10.079Z,93023.66
2023-05-04T05:31:36.528Z,93031.44
2023-05-04T05:34:03.094Z,93034.09
2023-05-04T05:36:29.650Z,93032.72
2023-05-04T05:38:56.108Z,93035.28
2023-05-04T05:41:22.693Z,93040.34
2023-05-04T05:43:49.214Z,93030.97
2023-05-04T05:46:15.821Z,93044.63
2023-05-04T05:48:42.895Z,93041.13
2023-05-04T05:51:09.428Z,93037.59
2023-05-04T05:53:35.995Z,93043.41
2023-05-04T05:56:02.492Z,93043.69
2023-05-04T05:58:28.983Z,93043.63
2023-05-04T06:00:55.490Z,93043.28
2023-05-04T06:03:22.155Z,93045.00
2023-05-04T06:05:48.706Z,93039.50
2023-05-04T06:08:15.210Z,93039.72
2023-05-04T06:10:41.989Z,93041.28
2023-05-04T06:13:08.634Z,93046.50
2023-05-04T06:15:36.548Z,93041.28
2023-05-04T06:18:03.107Z,93047.56
2023-05-04T06:20:29.678Z,93049.94
2023-05-04T06:22:56.942Z,93039.91
2023-05-04T06:25:23.443Z,93042.81
2023-05-04T06:27:49.952Z,93041.28
2023-05-04T06:30:16.543Z,93038.94
2023-05-04T06:32:43.077Z,93030.72
2023-05-04T06:35:10.456Z,93033.69
2023-05-04T06:37:37.371Z,93028.41
2023-05-04T06:40:05.174Z,93029.09
2023-05-04T06:42:31.685Z,93031.50
2023-05-04T06:44:58.509Z,93035.19
2023-05-04T06:47:25.180Z,93031.41
2023-05-04T06:49:51.659Z,93039.97
2023-05-04T06:52:18.187Z,93041.84
2023-05-04T06:54:44.668Z,93040.97
2023-05-04T06:57:11.370Z,93052.59
2023-05-04T06:59:37.850Z,93053.59
2023-05-04T07:02:04.682Z,93052.06
2023-05-04T07:04:31.938Z,93053.00
2023-05-04T07:06:58.408Z,93041.22
2023-05-04T07:09:24.903Z,93035.44
2023-05-04T07:11:51.540Z,93045.78
2023-05-04T07:14:18.032Z,93038.06
2023-05-04T07:16:44.692Z,93039.75
2023-05-04T07:19:11.492Z,93041.19
2023-05-04T07:21:37.945Z,93044.28
2023-05-04T07:24:05.173Z,93034.25
2023-05-04T07:26:31.686Z,93029.94
2023-05-04T07:28:58.176Z,93024.63
2023-05-04T07:31:24.685Z,93019.25
2023-05-04T07:33:51.276Z,93019.09
2023-05-04T07:36:18.034Z,93015.41
2023-05-04T07:38:44.539Z,93023.56
2023-05-04T07:41:11.032Z,93022.38
2023-05-04T07:43:37.498Z,93018.16
2023-05-04T07:46:04.028Z,93015.97
2023-05-04T07:48:30.518Z,93018.69
2023-05-04T07:50:57.053Z,93010.53
2023-05-04T07:53:25.514Z,93015.00
2023-05-04T07:55:54.212Z,93009.53
2023-05-04T07:58:20.759Z,93014.00
2023-05-04T08:00:47.302Z,93002.84
2023-05-04T08:03:13.770Z,93003.53
2023-05-04T08:05:40.402Z,93013.44
2023-05-04T08:08:08.658Z,93011.94
2023-05-04T08:10:38.665Z,93010.63
2023-05-04T08:13:05.448Z,93015.56
2023-05-04T08:15:32.067Z,93007.56
2023-05-04T08:17:58.605Z,93014.00
2023-05-04T08:20:25.177Z,93015.91
2023-05-04T08:22:51.981Z,93011.81
2023-05-04T08:25:18.486Z,93021.88
2023-05-04T08:27:45.447Z,93020.75
2023-05-04T08:30:12.254Z,93011.06
2023-05-04T08:32:38.823Z,93014.53
2023-05-04T08:35:06.165Z,93016.88
2023-05-04T08:37:32.980Z,93024.34
2023-05-04T08:39:59.527Z,93014.47
2023-05-04T08:42:29.446Z,93016.56
2023-05-04T08:44:56.131Z,93020.41
2023-05-04T08:47:22.641Z,93012.88
2023-05-04T08:49:49.694Z,93021.25
2023-05-04T08:52:16.153Z,93011.72
2023-05-04T08:54:43.418Z,93018.53
2023-05-04T08:57:10.048Z,93015.03
2023-05-04T08:59:36.504Z,93018.13
2023-05-04T09:02:03.950Z,93022.44
2023-05-04T09:04:31.074Z,93024.78
2023-05-04T09:06:58.522Z,93022.56
2023-05-04T09:09:28.855Z,93027.75
2023-05-04T09:11:55.410Z,93028.53
2023-05-04T09:14:22.464Z,93036.06
2023-05-04T09:16:49.014Z,93026.88
2023-05-04T09:19:19.237Z,93028.16
2023-05-04T09:21:47.081Z,93020.31
2023-05-04T09:24:13.586Z,93025.19
2023-05-04T09:26:40.102Z,93029.09
2023-05-04T09:29:16.122Z,93022.38
2023-05-04T09:31:47.227Z,93024.25
2023-05-04T09:34:14.884Z,93030.19
2023-05-04T09:36:42.212Z,93029.59
2023-05-04T09:39:11.432Z,93025.56
2023-05-04T09:41:38.045Z,93019.13
2023-05-04T09:44:05.037Z,93017.13
2023-05-04T09:46:31.569Z,93019.69
2023-05-04T09:48:58.175Z,93020.16
2023-05-04T09:51:25.548Z,93016.22
2023-05-04T09:53:52.465Z,93014.09
2023-05-04T09:56:25.122Z,93016.06
2023-05-04T09:58:51.636Z,93017.38
2023-05-04T10:01:18.136Z,93017.38
2023-05-04T10:03:44.664Z,93015.28
2023-05-04T10:06:11.469Z,93016.53
2023-05-04T10:08:38.681Z,93017.69
2023-05-04T10:11:05.231Z,93011.66
2023-05-04T10:13:31.688Z,93013.84
2023-05-04T10:16:01.154Z,93017.41
2023-05-04T10:18:49.018Z,93011.84
2023-05-04T10:21:44.584Z,93018.47
2023-05-04T10:24:29.409Z,93017.56
2023-05-04T10:27:09.671Z,93004.84
2023-05-04T10:29:36.203Z,93000.69
2023-05-04T10:32:03.064Z,92998.28
2023-05-04T10:34:31.659Z,93001.97
2023-05-04T10:36:58.947Z,93000.25
2023-05-04T10:39:32.701Z,93003.00
2023-05-04T10:42:03.911Z,93002.69
2023-05-04T10:44:35.040Z,92994.75
2023-05-04T10:47:02.271Z,92999.41
2023-05-04T10:49:29.046Z,93001.63
2023-05-04T10:52:24.935Z,92995.28
2023-05-04T10:55:01.300Z,93002.97
2023-05-04T10:57:29.331Z,93000.22
2023-05-04T10:59:57.242Z,92996.22
2023-05-04T11:02:27.074Z,92990.56
2023-05-04T11:05:04.580Z,92991.44
2023-05-04T11:07:37.291Z,92985.16
2023-05-04T11:10:08.325Z,92988.06
2023-05-04T11:12:34.950Z,92989.25
2023-05-04T11:15:10.648Z,92992.06
2023-05-04T11:17:50.179Z,92992.47
2023-05-04T11:20:23.749Z,92988.78
2023-05-04T11:22:50.453Z,92983.38
2023-05-04T11:25:17.173Z,92985.00
2023-05-04T11:27:43.990Z,92981.28
2023-05-04T11:30:10.776Z,92972.00
2023-05-04T11:32:42.763Z,92979.19
2023-05-04T11:35:14.487Z,92986.97
2023-05-04T11:37:41.842Z,92977.72
2023-05-04T11:40:11.893Z,92976.41
2023-05-04T11:42:41.379Z,92970.03
2023-05-04T11:45:18.360Z,92972.38
2023-05-04T11:47:45.455Z,92964.53
2023-05-04T11:50:12.851Z,92968.84
2023-05-04T11:52:40.942Z,92958.06
2023-05-04T11:55:09.736Z,92958.75
2023-05-04T11:57:37.389Z,92964.53
2023-05-04T12:00:07.874Z,92958.03
2023-05-04T12:02:34.680Z,92960.13
2023-05-04T12:05:01.545Z,92951.56
2023-05-04T12:07:28.381Z,92956.41
2023-05-04T12:09:54.833Z,92953.44
2023-05-04T12:12:21.529Z,92955.81
2023-05-04T12:14:48.637Z,92957.28
2023-05-04T12:17:15.810Z,92957.88
2023-05-04T12:19:49.662Z,92958.28
2023-05-04T12:22:16.806Z,92956.75
2023-05-04T12:24:43.332Z,92959.31
2023-05-04T12:27:15.966Z,92949.44
2023-05-04T12:29:42.443Z,92953.41
2023-05-04T12:32:09.094Z,92950.38
2023-05-04T12:34:36.965Z,92943.16
2023-05-04T12:37:03.518Z,92944.63
2023-05-04T12:39:32.077Z,92930.00
2023-05-04T12:41:59.544Z,92936.88
2023-05-04T12:44:26.073Z,92932.34
2023-05-04T12:46:53.676Z,92932.50
2023-05-04T12:49:20.295Z,92923.22
2023-05-04T12:51:47.091Z,92922.13
2023-05-04T12:54:13.641Z,92927.94
2023-05-04T12:56:40.132Z,92916.91
2023-05-04T12:59:06.609Z,92913.44
2023-05-04T13:01:33.192Z,92910.22
2023-05-04T13:03:59.684Z,92914.59
2023-05-04T13:06:26.159Z,92917.94
2023-05-04T13:08:52.669Z,92901.31
2023-05-04T13:11:20.065Z,92907.34
2023-05-04T13:13:46.550Z,92895.81
2023-05-04T13:16:13.444Z,92902.78
2023-05-04T13:18:39.979Z,92906.28
2023-05-04T13:21:06.456Z,92900.22
2023-05-04T13:23:32.960Z,92904.47
2023-05-04T13:25:59.458Z,92892.31
2023-05-04T13:28:25.907Z,92888.97
2023-05-04T13:30:52.380Z,92890.22
2023-05-04T13:33:28.608Z,92875.59
2023-05-04T13:36:01.901Z,92881.22
2023-05-04T13:38:28.405Z,92889.75
2023-05-04T13:40:55.216Z,92881.38
2023-05-04T13:43:21.895Z,92877.50
2023-05-04T13:45:48.443Z,92880.59
2023-05-04T13:48:14.953Z,92865.53
2023-05-04T13:50:41.446Z,92860.41
2023-05-04T13:53:10.841Z,92853.16
2023-05-04T13:55:37.550Z,92859.97
2023-05-04T13:58:04.071Z,92855.56
2023-05-04T14:00:30.522Z,92850.41
2023-05-04T14:02:57.289Z,92840.00
2023-05-04T14:05:23.884Z,92840.63
2023-05-04T14:07:52.164Z,92841.63
2023-05-04T14:10:18.737Z,92846.44
2023-05-04T14:12:45.423Z,92827.41
2023-05-04T14:15:11.992Z,92819.69
2023-05-04T14:17:39.650Z,92811.28
2023-05-04T14:20:07.482Z,92820.44
2023-05-04T14:22:36.452Z,92814.97
2023-05-04T14:25:04.986Z,92819.38
2023-05-04T14:27:34.452Z,92810.91
2023-05-04T14:30:04.371Z,92806.25
2023-05-04T14:32:30.931Z,92803.00
2023-05-04T14:35:06.363Z,92800.03
2023-05-04T14:37:35.695Z,92798.16
2023-05-04T14:40:06.506Z,92805.38
2023-05-04T14:42:33.275Z,92807.84
2023-05-04T14:44:59.817Z,92803.66
2023-05-04T14:47:27.476Z,92808.84
2023-05-04T14:49:54.123Z,92800.47
2023-05-04T14:52:20.752Z,92801.25
2023-05-04T14:54:47.226Z,92799.50
2023-05-04T14:57:13.752Z,92788.72
2023-05-04T14:59:41.793Z,92794.34
2023-05-04T15:02:08.412Z,92798.81
2023-05-04T15:04:35.126Z,92791.69
2023-05-04T15:07:02.174Z,92791.41
2023-05-04T15:09:29.021Z,92794.44
2023-05-04T15:11:55.653Z,92787.88
2023-05-04T15:14:22.178Z,92790.53
2023-05-04T15:16:48.640Z,92784.88
2023-05-04T15:19:15.556Z,92783.56
2023-05-04T15:21:42.016Z,92785.81
2023-05-04T15:24:08.539Z,92791.94
2023-05-04T15:26:36.058Z,92778.78
2023-05-04T15:29:02.511Z,92794.41
2023-05-04T15:31:29.032Z,92780.66
2023-05-04T15:33:55.798Z,92780.81
2023-05-04T15:36:23.521Z,92779.91
2023-05-04T15:38:50.008Z,92766.19
2023-05-04T15:41:16.602Z,92772.16
2023-05-04T15:43:43.107Z,92769.91
2023-05-04T15:46:09.551Z,92772.50
2023-05-04T15:48:36.067Z,92767.66
2023-05-04T15:51:02.524Z,92779.44
2023-05-04T15:53:28.992Z,92772.78
2023-05-04T15:55:55.461Z,92763.97
2023-05-04T15:58:21.941Z,92772.13
2023-05-04T16:00:48.511Z,92769.03
2023-05-04T16:03:15.088Z,92766.81
2023-05-04T16:05:41.684Z,92770.50
2023-05-04T16:08:08.141Z,92764.47
2023-05-04T16:10:34.604Z,92765.16
2023-05-04T16:13:03.962Z,92769.28
2023-05-04T16:15:30.976Z,92767.81
2023-05-04T16:17:57.514Z,92770.75
2023-05-04T16:20:24.043Z,92762.34
2023-05-04T16:22:50.503Z,92772.41
2023-05-04T16:25:16.986Z,92769.53
2023-05-04T16:27:43.466Z,92764.78
2023-05-04T16:30:10.430Z,92763.31
2023-05-04T16:32:37.252Z,92748.97
2023-05-04T16:35:03.871Z,92760.84
2023-05-04T16:37:30.418Z,92759.44
2023-05-04T16:39:56.940Z,92752.88
2023-05-04T16:42:23.566Z,92756.50
2023-05-04T16:44:50.106Z,92752.69
2023-05-04T16:47:16.610Z,92756.19
2023-05-04T16:49:43.088Z,92755.22
2023-05-04T16:52:09.625Z,92754.03
2023-05-04T16:54:36.113Z,92757.09
2023-05-04T16:57:02.623Z,92752.22
2023-05-04T16:59:29.385Z,92753.72
2023-05-04T17:01:56.614Z,92754.66
2023-05-04T17:04:25.158Z,92765.19
2023-05-04T17:06:51.662Z,92765.56
2023-05-04T17:09:18.119Z,92758.84
2023-05-04T17:11:44.649Z,92765.09
2023-05-04T17:14:11.158Z,92766.06
2023-05-04T17:16:37.724Z,92776.13
2023-05-04T17:19:04.220Z,92767.25
2023-05-04T17:21:31.198Z,92770.97
2023-05-04T17:23:57.699Z,92770.25
2023-05-04T17:26:24.187Z,92765.78
2023-05-04T17:28:51.163Z,92762.50
2023-05-04T17:31:17.646Z,92767.09
2023-05-04T17:33:44.166Z,92782.19
2023-05-04T17:36:12.110Z,92773.09
2023-05-04T17:38:39.299Z,92773.97
2023-05-04T17:41:05.980Z,92780.28
2023-05-04T17:43:33.802Z,92782.50
2023-05-04T17:46:00.316Z,92782.38
2023-05-04T17:48:27.804Z,92785.19
2023-05-04T17:50:54.297Z,92795.16
2023-05-04T17:53:20.942Z,92799.38
2023-05-04T17:55:47.417Z,92788.22
2023-05-04T17:58:13.883Z,92794.78
2023-05-04T18:00:40.565Z,92794.59
2023-05-04T18:03:07.070Z,92808.16
2023-05-04T18:05:33.599Z,92806.16
2023-05-04T18:08:00.116Z,92802.06
2023-05-04T18:10:26.662Z,92803.59
2023-05-04T18:12:53.316Z,92812.59
2023-05-04T18:15:19.892Z,92821.69
2023-05-04T18:17:46.482Z,92817.47
2023-05-04T18:20:13.155Z,92820.50
2023-05-04T18:22:39.755Z,92821.16
2023-05-04T18:25:06.784Z,92816.16
2023-05-04T18:27:35.968Z,92817.53
2023-05-04T18:30:03.504Z,92829.66
2023-05-04T18:32:30.054Z,92836.47
2023-05-04T18:34:57.907Z,92829.94
2023-05-04T18:37:24.909Z,92837.06
2023-05-04T18:39:51.403Z,92848.84
2023-05-04T18:42:17.997Z,92852.28
2023-05-04T18:44:44.528Z,92854.88
2023-05-04T18:47:11.313Z,92858.44
2023-05-04T18:49:38.043Z,92867.47
2023-05-04T18:52:04.757Z,92870.53
2023-05-04T18:54:32.061Z,92863.41
2023-05-04T18:56:58.859Z,92865.50
2023-05-04T18:59:25.562Z,92864.06
2023-05-04T19:01:52.481Z,92876.63
2023-05-04T19:04:19.071Z,92881.41
2023-05-04T19:06:46.830Z,92882.44
2023-05-04T19:09:14.417Z,92876.81
2023-05-04T19:11:41.291Z,92878.34
2023-05-04T19:14:07.974Z,92882.91
2023-05-04T19:16:34.492Z,92878.97
2023-05-04T19:19:01.012Z,92880.50
2023-05-04T19:21:28.452Z,92895.75
2023-05-04T19:23:55.031Z,92902.50
2023-05-04T19:26:21.804Z,92910.78
2023-05-04T19:28:48.296Z,92911.84
2023-05-04T19:31:15.231Z,92913.16
2023-05-04T19:33:48.584Z,92913.94
2023-05-04T19:36:16.075Z,92913.69
2023-05-04T19:38:42.620Z,92905.72
2023-05-04T19:41:09.135Z,92910.97
2023-05-04T19:43:35.688Z,92906.75
2023-05-04T19:46:02.457Z,92916.47
2023-05-04T19:48:28.953Z,92917.19
2023-05-04T19:50:55.973Z,92922.66
2023-05-04T19:53:22.456Z,92925.38
2023-05-04T19:55:49.014Z,92926.13
2023-05-04T19:58:15.465Z,92925.66
2023-05-04T20:00:43.095Z,92932.16
2023-05-04T20:03:10.370Z,92939.63
2023-05-04T20:05:38.336Z,92932.72
2023-05-04T20:08:05.425Z,92940.75
2023-05-04T20:10:32.371Z,92938.56
2023-05-04T20:12:58.967Z,92945.84
2023-05-04T20:15:25.926Z,92949.13
2023-05-04T20:17:52.650Z,92950.66
2023-05-04T20:20:21.396Z,92944.22
2023-05-04T20:22:49.264Z,92955.41
2023-05-04T20:25:15.799Z,92942.06
2023-05-04T20:27:42.461Z,92947.53
2023-05-04T20:30:10.616Z,92940.81
2023-05-04T20:32:37.241Z,92945.06
2023-05-04T20:35:03.800Z,92955.78
2023-05-04T20:37:30.273Z,92953.53
2023-05-04T20:39:56.782Z,92953.31
2023-05-04T20:42:23.356Z,92954.38
2023-05-04T20:44:49.824Z,92957.41
2023-05-04T20:47:16.382Z,92959.94
2023-05-04T20:49:42.828Z,92956.72
2023-05-04T20:52:09.377Z,92965.16
2023-05-04T20:54:35.861Z,92964.16
2023-05-04T20:57:02.401Z,92960.94
2023-05-04T20:59:28.963Z,92966.88
2023-05-04T21:01:56.231Z,92974.84
2023-05-04T21:04:22.756Z,92975.41
2023-05-04T21:06:49.392Z,92969.94
2023-05-04T21:09:16.355Z,92961.78
2023-05-04T21:11:42.819Z,92970.94
2023-05-04T21:14:09.368Z,92974.44
2023-05-04T21:16:35.901Z,92970.97
2023-05-04T21:19:02.587Z,92978.41
2023-05-04T21:21:29.280Z,92972.69
2023-05-04T21:23:55.815Z,92969.69
2023-05-04T21:26:22.317Z,92973.44
2023-05-04T21:28:48.846Z,92976.19
2023-05-04T21:31:15.377Z,92976.41
2023-05-04T21:33:41.953Z,92978.91
2023-05-04T21:36:14.782Z,92970.94
2023-05-04T21:38:41.455Z,92977.66
2023-05-04T21:41:16.157Z,92979.91
2023-05-04T21:43:42.833Z,92968.22
2023-05-04T21:46:09.303Z,92981.38
2023-05-04T21:48:35.820Z,92974.44
2023-05-04T21:51:02.359Z,92973.97
2023-05-04T21:53:33.552Z,92977.66
2023-05-04T21:56:00.822Z,92975.44
2023-05-04T21:58:27.347Z,92973.97
2023-05-04T22:00:54.744Z,92984.88
2023-05-04T22:03:21.689Z,92985.16
2023-05-04T22:05:55.140Z,92974.97
2023-05-04T22:08:24.391Z,92983.91
2023-05-04T22:10:51.509Z,92974.25
2023-05-04T22:13:18.178Z,92984.94
2023-05-04T22:15:50.082Z,92985.44
2023-05-04T22:18:16.979Z,92984.72
2023-05-04T22:20:43.624Z,92983.22
2023-05-04T22:23:10.246Z,92987.22
2023-05-04T22:25:36.755Z,92988.44
2023-05-04T22:28:03.394Z,92985.72
2023-05-04T22:30:29.861Z,92996.63
2023-05-04T22:32:56.416Z,92995.13
2023-05-04T22:35:22.930Z,92998.31
2023-05-04T22:37:52.502Z,93006.00
2023-05-04T22:40:19.062Z,93008.22
2023-05-04T22:42:45.711Z,93000.50
2023-05-04T22:45:15.707Z,93007.44
2023-05-04T22:47:42.415Z,93000.25
2023-05-04T22:50:09.534Z,93014.34
2023-05-04T22:52:36.624Z,93009.88
2023-05-04T22:55:03.706Z,93003.69
2023-05-04T22:57:30.215Z,93010.63
2023-05-04T22:59:56.721Z,93010.88
2023-05-04T23:02:23.471Z,93008.63
2023-05-04T23:04:50.052Z,93014.09
2023-05-04T23:07:16.578Z,93009.63
2023-05-04T23:09:46.384Z,93016.81
2023-05-04T23:12:13.333Z,93013.53
2023-05-04T23:14:39.791Z,93016.00
2023-05-04T23:17:06.270Z,93009.25
2023-05-04T23:19:32.771Z,93011.44
2023-05-04T23:21:59.469Z,93013.16
2023-05-04T23:24:26.238Z,93011.69
2023-05-04T23:26:52.766Z,93001.56
2023-05-04T23:29:19.777Z,93012.00
2023-05-04T23:31:46.296Z,93007.78
2023-05-04T23:34:13.466Z,93008.03
2023-05-04T23:36:39.986Z,93006.53
2023-05-04T23:39:06.476Z,93000.34
2023-05-04T23:41:33.272Z,93004.56
2023-05-04T23:43:59.820Z,93004.03
2023-05-04T23:46:26.314Z,93004.50
2023-05-04T23:48:52.870Z,92999.78
2023-05-04T23:51:19.353Z,92994.59
2023-05-04T23:53:45.814Z,92996.53
2023-05-04T23:56:12.995Z,93005.69
2023-05-04T23:58:39.514Z,93000.94
